Time;durP1;ratioP1;P1;durP2;ratioP2;P2;SDS_P1;SDS_P2;PMS_P1;PMS_P2;Temp;Humidity;BMP_temperature;BMP_pressure;BME280_temperature;BME280_humidity;BME280_pressure;Samples;Min_cycle;Max_cycle;Signal;HPM_P1;HPM_P2
2021/05/02 00:02:14;;;;;;;;;;;;;;;24.44;45.30;98915.56;5273117;27;33938;-91
2021/05/02 00:04:41;;;;;;;;;;;;;;;24.66;44.72;98906.25;5273174;27;33650;-91
2021/05/02 00:07:08;;;;;;;;;;;;;;;24.80;44.28;98901.31;5237337;27;32954;-91
2021/05/02 00:09:36;;;;;;;;;;;;;;;24.15;45.82;98908.72;5273266;27;32841;-92
2021/05/02 00:12:04;;;;;;;;;;;;;;;24.81;44.26;98897.63;5254786;27;33019;-91
2021/05/02 00:14:31;;;;;;;;;;;;;;;24.72;44.52;98894.13;5237318;27;33117;-91
2021/05/02 00:16:58;;;;;;;;;;;;;;;24.46;45.17;98912.75;5273071;27;33916;-91
2021/05/02 00:19:26;;;;;;;;;;;;;;;24.55;44.98;98901.13;5254972;27;31935;-90
2021/05/02 00:21:52;;;;;;;;;;;;;;;24.96;44.00;98890.72;5254700;27;33183;-91
2021/05/02 00:24:21;;;;;;;;;;;;;;;24.84;44.12;98892.00;5272859;27;33751;-90
2021/05/02 00:26:49;;;;;;;;;;;;;;;25.24;43.25;98887.78;5273171;27;33589;-91
2021/05/02 00:29:16;;;;;;;;;;;;;;;25.00;43.74;98878.72;5254969;27;32218;-92
2021/05/02 00:31:45;;;;;;;;;;;;;;;25.58;42.35;98872.72;5254767;27;33324;-91
2021/05/02 00:34:13;;;;;;;;;;;;;;;25.83;41.56;98874.41;5255109;27;33197;-91
2021/05/02 00:36:40;;;;;;;;;;;;;;;25.48;42.36;98881.72;5272769;27;34092;-91
2021/05/02 00:39:07;;;;;;;;;;;;;;;25.62;42.04;98879.38;5273136;27;33231;-92
2021/05/02 00:41:35;;;;;;;;;;;;;;;25.66;41.80;98875.38;5254889;27;34279;-89
2021/05/02 00:44:07;;;;;;;;;;;;;;;25.94;41.14;98872.37;5254829;27;33304;-91
2021/05/02 00:46:36;;;;;;;;;;;;;;;25.87;41.37;98863.41;5237165;27;33130;-91
2021/05/02 00:49:03;;;;;;;;;;;;;;;25.59;41.84;98853.88;5254886;27;32207;-90
2021/05/02 00:51:31;;;;;;;;;;;;;;;25.28;42.60;98851.81;5272533;27;33617;-89
2021/05/02 00:54:10;;;;;;;;;;;;;;;24.98;43.27;98854.09;5254820;27;34400;-90
2021/05/02 00:56:41;;;;;;;;;;;;;;;25.49;41.99;98848.72;5255116;27;33586;-91
2021/05/02 00:59:27;;;;;;;;;;;;;;;25.23;42.43;98847.97;5219360;27;31997;-91
2021/05/02 01:01:54;;;;;;;;;;;;;;;25.82;41.15;98842.53;5254543;27;33073;-91
2021/05/02 01:04:42;;;;;;;;;;;;;;;25.99;40.77;98841.53;5258102;27;33760;-92
2021/05/02 01:07:17;;;;;;;;;;;;;;;25.95;40.81;98840.22;5255065;27;32836;-89
2021/05/02 01:09:44;;;;;;;;;;;;;;;26.07;40.56;98829.22;5263522;27;31832;-90
2021/05/02 01:12:12;;;;;;;;;;;;;;;26.11;40.43;98830.53;5278307;27;33659;-91
2021/05/02 01:14:41;;;;;;;;;;;;;;;25.83;40.94;98814.88;5266806;27;34141;-92
2021/05/02 01:17:08;;;;;;;;;;;;;;;25.60;41.41;98810.22;5267315;27;34311;-92
2021/05/02 01:19:36;;;;;;;;;;;;;;;25.63;41.38;98807.22;5285238;27;33208;-92
2021/05/02 01:22:03;;;;;;;;;;;;;;;25.35;42.16;98812.03;5266497;27;32922;-91
2021/05/02 01:24:30;;;;;;;;;;;;;;;25.41;42.01;98805.19;5260161;27;32431;-91
2021/05/02 01:26:57;;;;;;;;;;;;;;;24.83;43.40;98805.91;5272821;27;33518;-90
2021/05/02 01:29:24;;;;;;;;;;;;;;;25.41;42.00;98799.88;5254822;27;32148;-90
2021/05/02 01:31:52;;;;;;;;;;;;;;;25.75;41.18;98805.03;5254751;27;33864;-91
2021/05/02 01:34:19;;;;;;;;;;;;;;;25.89;40.77;98798.19;5254599;27;33204;-91
2021/05/02 01:36:46;;;;;;;;;;;;;;;26.03;40.46;98802.03;5254757;27;33642;-90
2021/05/02 01:39:13;;;;;;;;;;;;;;;26.30;39.84;98808.81;5236875;27;32119;-91
2021/05/02 01:41:40;;;;;;;;;;;;;;;26.69;38.94;98812.50;5254737;27;32455;-92
2021/05/02 01:44:07;;;;;;;;;;;;;;;26.55;39.18;98807.88;5272620;27;34782;-90
2021/05/02 01:46:38;;;;;;;;;;;;;;;26.61;39.01;98799.19;5254739;27;33195;-91
2021/05/02 01:49:06;;;;;;;;;;;;;;;26.34;39.66;98796.78;5272622;27;32879;-91
2021/05/02 01:51:34;;;;;;;;;;;;;;;26.63;39.12;98792.66;5272321;27;33015;-90
2021/05/02 01:54:01;;;;;;;;;;;;;;;26.43;39.54;98786.06;5237113;27;33797;-91
2021/05/02 01:56:28;;;;;;;;;;;;;;;26.32;39.77;98790.75;5254842;27;32789;-91
2021/05/02 01:58:55;;;;;;;;;;;;;;;26.56;39.25;98777.50;5272755;27;32756;-91
2021/05/02 02:01:23;;;;;;;;;;;;;;;25.65;41.26;98793.72;5272488;27;33692;-91
2021/05/02 02:03:50;;;;;;;;;;;;;;;25.84;40.92;98793.34;5272840;27;33707;-90
2021/05/02 02:06:17;;;;;;;;;;;;;;;25.31;42.11;98792.00;5254589;27;32851;-90
2021/05/02 02:08:44;;;;;;;;;;;;;;;24.98;43.04;98795.47;5254493;27;32993;-92
2021/05/02 02:11:11;;;;;;;;;;;;;;;24.43;44.47;98793.28;5236707;27;32882;-91
2021/05/02 02:13:39;;;;;;;;;;;;;;;25.04;43.06;98801.16;5255532;27;33171;-90
2021/05/02 02:16:07;;;;;;;;;;;;;;;24.98;43.30;98797.28;5255753;27;33012;-91
2021/05/02 02:18:39;;;;;;;;;;;;;;;25.36;42.25;98791.56;5239619;27;33065;-90
2021/05/02 02:21:07;;;;;;;;;;;;;;;24.95;43.21;98803.78;5273846;27;33254;-90
2021/05/02 02:23:35;;;;;;;;;;;;;;;25.22;42.62;98806.34;5238162;27;32869;-91
2021/05/02 02:26:09;;;;;;;;;;;;;;;25.15;42.78;98795.50;5273603;27;33716;-91
2021/05/02 02:28:36;;;;;;;;;;;;;;;25.46;42.03;98794.88;5256665;27;31850;-91
2021/05/02 02:31:03;;;;;;;;;;;;;;;25.65;41.57;98789.22;5256692;27;32912;-90
2021/05/02 02:33:31;;;;;;;;;;;;;;;25.55;41.70;98793.88;5274260;27;34124;-91
2021/05/02 02:35:58;;;;;;;;;;;;;;;25.55;41.77;98780.53;5255173;26;33969;-90
2021/05/02 02:38:25;;;;;;;;;;;;;;;25.35;42.12;98785.38;5272397;27;32881;-91
2021/05/02 02:40:53;;;;;;;;;;;;;;;25.49;41.93;98789.22;5254335;27;33215;-90
2021/05/02 02:43:22;;;;;;;;;;;;;;;25.31;42.05;98789.34;5254453;27;33176;-90
2021/05/02 02:45:54;;;;;;;;;;;;;;;25.70;41.36;98798.53;5254700;27;34556;-91
2021/05/02 02:48:23;;;;;;;;;;;;;;;25.28;42.08;98803.84;5254900;27;33704;-92
2021/05/02 02:50:51;;;;;;;;;;;;;;;25.52;41.71;98799.56;5254376;27;34011;-91
2021/05/02 02:53:19;;;;;;;;;;;;;;;25.39;42.08;98808.03;5236643;27;32873;-90
2021/05/02 02:55:53;;;;;;;;;;;;;;;25.81;41.03;98801.69;5254368;27;32716;-90
2021/05/02 02:58:20;;;;;;;;;;;;;;;24.80;43.35;98797.44;5254322;27;31997;-91
2021/05/02 03:00:48;;;;;;;;;;;;;;;24.80;43.30;98792.09;5254617;27;33029;-91
2021/05/02 03:03:17;;;;;;;;;;;;;;;25.38;41.96;98793.06;5255088;27;33079;-90
2021/05/02 03:05:45;;;;;;;;;;;;;;;25.87;40.86;98786.84;5237371;27;33055;-92
2021/05/02 03:08:12;;;;;;;;;;;;;;;26.02;40.41;98784.34;5273487;27;33800;-90
2021/05/02 03:10:40;;;;;;;;;;;;;;;26.05;40.30;98785.88;5255585;27;34226;-89
2021/05/02 03:13:07;;;;;;;;;;;;;;;25.93;40.73;98772.00;5255183;27;33982;-90
2021/05/02 03:15:35;;;;;;;;;;;;;;;26.34;40.01;98772.75;5273152;27;33629;-90
2021/05/02 03:18:03;;;;;;;;;;;;;;;26.46;39.67;98777.72;5255103;27;32072;-90
2021/05/02 03:20:34;;;;;;;;;;;;;;;26.66;39.21;98775.44;5237560;27;33941;-90
2021/05/02 03:23:10;;;;;;;;;;;;;;;26.25;40.05;98776.44;5237502;27;34073;-90
2021/05/02 03:25:40;;;;;;;;;;;;;;;26.18;40.33;98775.47;5273191;27;34706;-92
2021/05/02 03:28:08;;;;;;;;;;;;;;;25.82;41.46;98789.19;5237511;27;33339;-91
2021/05/02 03:30:35;;;;;;;;;;;;;;;25.96;41.08;98791.16;5237591;27;33914;-91
2021/05/02 03:33:05;;;;;;;;;;;;;;;24.83;43.53;98789.09;5255047;27;33120;-91
2021/05/02 03:35:33;;;;;;;;;;;;;;;25.36;42.38;98784.38;5254873;27;32682;-90
2021/05/02 03:38:03;;;;;;;;;;;;;;;25.74;41.53;98798.06;5273305;27;33953;-91
2021/05/02 03:40:30;;;;;;;;;;;;;;;25.47;42.13;98791.22;5255116;27;33550;-91
2021/05/02 03:42:58;;;;;;;;;;;;;;;25.39;42.66;98781.37;5273009;27;33408;-90
2021/05/02 03:45:25;;;;;;;;;;;;;;;24.50;44.69;98776.50;5255037;27;34170;-92
2021/05/02 03:47:52;;;;;;;;;;;;;;;24.69;44.36;98782.59;5273201;27;32895;-90
2021/05/02 03:50:19;;;;;;;;;;;;;;;25.57;42.22;98781.22;5254968;27;33998;-91
2021/05/02 03:52:46;;;;;;;;;;;;;;;25.90;41.38;98789.19;5255107;27;33991;-90
2021/05/02 03:55:13;;;;;;;;;;;;;;;25.85;41.34;98783.53;5254743;27;34165;-90
2021/05/02 03:57:40;;;;;;;;;;;;;;;25.81;41.31;98782.19;5254896;27;33582;-91
2021/05/02 04:00:08;;;;;;;;;;;;;;;25.58;41.50;98779.38;5273349;27;33651;-90
2021/05/02 04:02:35;;;;;;;;;;;;;;;25.45;41.71;98783.38;5255138;27;34031;-92
2021/05/02 04:05:03;;;;;;;;;;;;;;;25.54;41.54;98786.91;5255141;27;32825;-90
2021/05/02 04:07:30;;;;;;;;;;;;;;;25.60;41.33;98783.53;5273025;27;33984;-91
2021/05/02 04:09:57;;;;;;;;;;;;;;;25.84;40.81;98781.84;5237378;27;32723;-90
2021/05/02 04:12:24;;;;;;;;;;;;;;;25.52;41.50;98778.22;5254700;27;32939;-91
2021/05/02 04:14:51;;;;;;;;;;;;;;;25.56;41.44;98784.06;5255022;27;32823;-92
2021/05/02 04:17:18;;;;;;;;;;;;;;;26.16;40.09;98785.47;5273192;27;33635;-92
2021/05/02 04:19:46;;;;;;;;;;;;;;;24.70;43.58;98791.41;5273058;27;34711;-90
2021/05/02 04:22:14;;;;;;;;;;;;;;;25.30;42.32;98795.66;5255288;27;34051;-92
2021/05/02 04:24:41;;;;;;;;;;;;;;;25.55;41.93;98804.53;5272960;27;33621;-90
2021/05/02 04:27:09;;;;;;;;;;;;;;;25.28;42.34;98809.16;5272809;27;33190;-92
2021/05/02 04:29:37;;;;;;;;;;;;;;;25.75;41.39;98810.38;5255231;27;32643;-91
2021/05/02 04:32:05;;;;;;;;;;;;;;;24.95;43.09;98801.12;5272927;27;35203;-92
2021/05/02 04:34:32;;;;;;;;;;;;;;;24.50;43.93;98810.25;5237167;26;33818;-91
2021/05/02 04:36:59;;;;;;;;;;;;;;;24.00;45.17;98809.19;5255212;27;32063;-90
2021/05/02 04:39:27;;;;;;;;;;;;;;;24.00;45.47;98812.66;5255127;27;33027;-91
2021/05/02 04:41:54;;;;;;;;;;;;;;;24.72;43.79;98806.22;5255111;27;33640;-91
2021/05/02 04:44:21;;;;;;;;;;;;;;;24.12;45.26;98807.09;5254786;27;32880;-90
2021/05/02 04:46:49;;;;;;;;;;;;;;;23.46;47.14;98814.56;5254907;27;33925;-91
2021/05/02 04:49:16;;;;;;;;;;;;;;;24.39;44.95;98802.56;5255371;27;33952;-91
2021/05/02 04:51:43;;;;;;;;;;;;;;;24.27;45.19;98802.00;5254765;27;33145;-91
2021/05/02 04:54:11;;;;;;;;;;;;;;;23.98;46.10;98798.66;5255024;27;32883;-91
2021/05/02 04:56:38;;;;;;;;;;;;;;;23.07;48.61;98801.53;5255325;27;31868;-91
2021/05/02 04:59:05;;;;;;;;;;;;;;;23.91;46.63;98804.78;5255952;27;33213;-91
2021/05/02 05:01:34;;;;;;;;;;;;;;;23.48;47.70;98810.75;5273956;27;33709;-89
2021/05/02 05:04:01;;;;;;;;;;;;;;;22.49;50.36;98822.13;5238497;27;33291;-90
2021/05/02 05:06:28;;;;;;;;;;;;;;;22.77;49.88;98817.63;5256247;27;31711;-91
2021/05/02 05:08:56;;;;;;;;;;;;;;;22.78;49.92;98819.31;5255648;27;34132;-89
2021/05/02 05:11:23;;;;;;;;;;;;;;;22.62;50.55;98814.66;5254926;27;33043;-91
2021/05/02 05:13:49;;;;;;;;;;;;;;;23.29;48.60;98811.72;5254830;27;32808;-89
2021/05/02 05:16:17;;;;;;;;;;;;;;;23.10;48.86;98811.87;5255298;27;32445;-90
2021/05/02 05:18:44;;;;;;;;;;;;;;;24.03;46.43;98805.37;5254838;27;33299;-90
2021/05/02 05:21:12;;;;;;;;;;;;;;;22.47;50.05;98813.44;5272741;27;34913;-91
2021/05/02 05:23:39;;;;;;;;;;;;;;;23.13;48.15;98814.22;5272840;27;34010;-90
2021/05/02 05:26:06;;;;;;;;;;;;;;;23.98;45.69;98805.81;5254250;27;32172;-91
2021/05/02 05:28:33;;;;;;;;;;;;;;;23.92;45.88;98807.28;5254692;27;33299;-90
2021/05/02 05:31:00;;;;;;;;;;;;;;;23.38;46.93;98810.00;5254920;27;33353;-90
2021/05/02 05:33:29;;;;;;;;;;;;;;;23.25;47.71;98818.34;5273258;27;34615;-91
2021/05/02 05:35:55;;;;;;;;;;;;;;;24.11;45.28;98811.56;5337172;26;32429;-92
2021/05/02 05:38:23;;;;;;;;;;;;;;;24.30;45.00;98825.63;5266455;27;33926;-89
2021/05/02 05:40:50;;;;;;;;;;;;;;;24.20;45.03;98824.91;5265592;27;32906;-91
2021/05/02 05:43:17;;;;;;;;;;;;;;;24.23;44.76;98828.09;5278520;27;34350;-91
2021/05/02 05:45:44;;;;;;;;;;;;;;;23.52;46.82;98816.59;5275372;27;33977;-91
2021/05/02 05:48:11;;;;;;;;;;;;;;;24.29;45.06;98819.50;5254846;27;33117;-90
2021/05/02 05:50:41;;;;;;;;;;;;;;;23.59;46.77;98825.63;5272882;27;34144;-90
2021/05/02 05:53:09;;;;;;;;;;;;;;;23.50;47.05;98823.88;5255377;27;32611;-90
2021/05/02 05:55:36;;;;;;;;;;;;;;;23.23;47.65;98830.97;5272587;27;33256;-90
2021/05/02 05:58:03;;;;;;;;;;;;;;;22.71;49.24;98828.00;5272882;27;33572;-90
2021/05/02 06:00:30;;;;;;;;;;;;;;;22.50;49.30;98821.97;5254697;27;33516;-91
2021/05/02 06:02:58;;;;;;;;;;;;;;;22.49;49.66;98824.78;5254928;27;32638;-91
2021/05/02 06:05:25;;;;;;;;;;;;;;;23.51;46.57;98805.13;5272794;27;32171;-90
2021/05/02 06:07:52;;;;;;;;;;;;;;;23.23;47.15;98822.97;5254720;27;34077;-91
2021/05/02 06:10:19;;;;;;;;;;;;;;;23.80;45.85;98819.97;5272619;27;34510;-90
2021/05/02 06:12:46;;;;;;;;;;;;;;;23.06;47.88;98823.78;5254279;27;32959;-91
2021/05/02 06:15:13;;;;;;;;;;;;;;;23.32;47.07;98818.56;5254827;27;31853;-89
2021/05/02 06:17:41;;;;;;;;;;;;;;;23.80;45.39;98821.78;5272748;27;33967;-90
2021/05/02 06:20:08;;;;;;;;;;;;;;;23.64;45.80;98836.63;5254903;27;33196;-90
2021/05/02 06:22:36;;;;;;;;;;;;;;;23.24;46.93;98834.44;5236817;27;32839;-90
2021/05/02 06:25:03;;;;;;;;;;;;;;;23.94;44.45;98841.72;5254675;27;33378;-89
2021/05/02 06:27:31;;;;;;;;;;;;;;;23.93;44.13;98835.56;5237009;27;32895;-90
2021/05/02 06:29:58;;;;;;;;;;;;;;;23.02;46.20;98836.50;5254718;27;33049;-90
2021/05/02 06:32:25;;;;;;;;;;;;;;;24.25;43.62;98844.75;5254405;27;33745;-90
2021/05/02 06:34:55;;;;;;;;;;;;;;;23.45;45.09;98844.78;5254158;27;32283;-91
2021/05/02 06:37:22;;;;;;;;;;;;;;;24.18;43.40;98847.22;5254500;27;32906;-90
2021/05/02 06:39:51;;;;;;;;;;;;;;;23.72;43.85;98850.97;5254764;27;33098;-90
2021/05/02 06:42:18;;;;;;;;;;;;;;;23.97;43.74;98873.31;5254935;27;32746;-89
2021/05/02 06:44:45;;;;;;;;;;;;;;;23.54;44.67;98873.09;5257928;27;31885;-89
2021/05/02 06:47:12;;;;;;;;;;;;;;;23.81;44.08;98860.69;5256217;27;34285;-90
2021/05/02 06:49:40;;;;;;;;;;;;;;;24.14;42.58;98863.63;5273685;27;34822;-89
2021/05/02 06:52:08;;;;;;;;;;;;;;;23.99;42.48;98863.38;5273668;27;33922;-90
2021/05/02 06:54:35;;;;;;;;;;;;;;;24.05;41.89;98865.37;5254850;27;31996;-90
2021/05/02 06:57:03;;;;;;;;;;;;;;;23.83;42.80;98861.38;5254216;27;33323;-90
2021/05/02 06:59:31;;;;;;;;;;;;;;;24.32;40.33;98866.25;5254439;27;32838;-89
2021/05/02 07:01:58;;;;;;;;;;;;;;;23.96;40.86;98864.50;5254283;27;32927;-90
2021/05/02 07:04:31;;;;;;;;;;;;;;;24.18;40.02;98870.31;5236869;27;31952;-92
2021/05/02 07:06:58;;;;;;;;;;;;;;;23.95;40.31;98870.81;5255036;27;33986;-89
2021/05/02 07:09:25;;;;;;;;;;;;;;;23.77;40.77;98872.63;5253566;27;33475;-89
2021/05/02 07:11:53;;;;;;;;;;;;;;;24.34;39.17;98857.13;5254154;27;33714;-89
2021/05/02 07:14:20;;;;;;;;;;;;;;;24.19;39.53;98869.31;5253942;27;33325;-90
2021/05/02 07:16:48;;;;;;;;;;;;;;;24.51;38.88;98889.97;5254383;27;33018;-89
2021/05/02 07:19:16;;;;;;;;;;;;;;;24.15;39.29;98879.44;5272471;27;34041;-89
2021/05/02 07:21:43;;;;;;;;;;;;;;;23.71;40.40;98895.34;5272244;27;33901;-90
2021/05/02 07:24:13;;;;;;;;;;;;;;;23.71;40.42;98899.84;5254086;27;31974;-89
2021/05/02 07:26:41;;;;;;;;;;;;;;;24.40;39.04;98884.94;5254208;27;34329;-89
2021/05/02 07:29:08;;;;;;;;;;;;;;;24.21;39.51;98890.44;5254242;27;34257;-90
2021/05/02 07:31:35;;;;;;;;;;;;;;;24.47;38.88;98901.94;5254091;27;34396;-90
2021/05/02 07:34:02;;;;;;;;;;;;;;;23.82;40.42;98896.94;5253889;27;32088;-89
2021/05/02 07:36:29;;;;;;;;;;;;;;;23.30;41.85;98902.94;5236211;27;33837;-90
2021/05/02 07:38:57;;;;;;;;;;;;;;;23.76;41.15;98903.72;5254236;27;32817;-90
2021/05/02 07:41:24;;;;;;;;;;;;;;;23.95;40.73;98908.06;5254239;27;33857;-90
2021/05/02 07:43:51;;;;;;;;;;;;;;;24.09;38.01;99001.63;5238751;27;33041;-89
2021/05/02 07:46:18;;;;;;;;;;;;;;;24.42;33.99;99007.22;5280574;27;33673;-91
2021/05/02 07:48:45;;;;;;;;;;;;;;;23.98;33.45;99008.00;5279960;27;36249;-90
2021/05/02 07:51:14;;;;;;;;;;;;;;;24.16;33.06;99032.78;5279112;27;35419;-90
2021/05/02 07:53:41;;;;;;;;;;;;;;;24.48;32.25;99051.88;5263456;27;33023;-90
2021/05/02 07:56:08;;;;;;;;;;;;;;;24.73;31.77;99062.72;5260083;27;32658;-89
2021/05/02 07:58:36;;;;;;;;;;;;;;;24.55;31.97;99068.91;5273957;27;34062;-90
2021/05/02 08:01:03;;;;;;;;;;;;;;;24.07;33.08;99078.94;5273340;27;33569;-90
2021/05/02 08:03:30;;;;;;;;;;;;;;;23.87;33.75;99102.13;5273231;27;33888;-90
2021/05/02 08:05:58;;;;;;;;;;;;;;;23.46;35.27;99114.91;5255196;27;34178;-89
2021/05/02 08:08:25;;;;;;;;;;;;;;;23.37;34.94;99097.19;5254998;27;34292;-89
2021/05/02 08:10:53;;;;;;;;;;;;;;;22.97;35.66;99096.41;5254975;27;33014;-91
2021/05/02 08:13:20;;;;;;;;;;;;;;;23.27;35.16;99108.69;5254796;27;33286;-89
2021/05/02 08:15:47;;;;;;;;;;;;;;;23.89;34.28;99105.50;5272911;27;33668;-91
2021/05/02 08:18:14;;;;;;;;;;;;;;;23.97;34.37;99113.59;5255042;27;34472;-90
2021/05/02 08:20:41;;;;;;;;;;;;;;;22.99;38.04;99099.78;5255047;27;32752;-89
2021/05/02 08:23:09;;;;;;;;;;;;;;;22.30;38.96;99105.09;5237405;27;32408;-91
2021/05/02 08:25:37;;;;;;;;;;;;;;;23.25;36.59;99123.09;5329088;26;34524;-90
2021/05/02 08:28:04;;;;;;;;;;;;;;;22.72;37.15;99124.41;5237070;27;33276;-90
2021/05/02 08:30:31;;;;;;;;;;;;;;;23.05;36.25;99132.91;5237154;27;33726;-91
2021/05/02 08:32:58;;;;;;;;;;;;;;;22.71;36.67;99128.03;5254708;27;33351;-91
2021/05/02 08:35:25;;;;;;;;;;;;;;;23.07;35.67;99134.44;5254804;26;32975;-90
2021/05/02 08:37:52;;;;;;;;;;;;;;;23.08;35.60;99135.25;5254722;27;32855;-92
2021/05/02 08:40:19;;;;;;;;;;;;;;;22.14;37.33;99144.59;5254740;27;33769;-90
2021/05/02 08:42:46;;;;;;;;;;;;;;;20.30;41.05;99133.53;5273174;27;33702;-89
2021/05/02 08:45:13;;;;;;;;;;;;;;;21.01;39.18;99139.16;5273004;27;35509;-90
2021/05/02 08:47:41;;;;;;;;;;;;;;;21.95;36.51;99135.59;5274117;27;35073;-91
2021/05/02 08:50:09;;;;;;;;;;;;;;;21.95;36.26;99150.66;5254968;27;33874;-90
2021/05/02 08:52:36;;;;;;;;;;;;;;;21.09;37.96;99151.75;5237085;27;32060;-90
2021/05/02 08:55:06;;;;;;;;;;;;;;;21.71;36.88;99151.00;5254957;27;32981;-91
2021/05/02 08:57:34;;;;;;;;;;;;;;;20.81;40.19;99169.97;5237259;27;33430;-90
2021/05/02 09:00:01;;;;;;;;;;;;;;;21.22;41.20;99171.91;5273031;27;34806;-90
2021/05/02 09:02:29;;;;;;;;;;;;;;;21.81;39.46;99165.97;5273281;27;32538;-90
2021/05/02 09:04:59;;;;;;;;;;;;;;;22.02;39.31;99165.91;5272923;27;33438;-90
2021/05/02 09:07:27;;;;;;;;;;;;;;;22.09;37.00;99176.81;5237864;27;33801;-91
2021/05/02 09:09:54;;;;;;;;;;;;;;;21.56;36.75;99188.47;5273147;27;33482;-90
2021/05/02 09:12:24;;;;;;;;;;;;;;;22.02;35.29;99184.47;5273097;27;32526;-89
2021/05/02 09:14:52;;;;;;;;;;;;;;;21.03;36.70;99197.28;5237326;27;32785;-91
2021/05/02 09:17:28;;;;;;;;;;;;;;;21.23;36.39;99195.63;5273103;27;33687;-90
2021/05/02 09:19:58;;;;;;;;;;;;;;;22.27;34.30;99197.38;5255959;27;33696;-89
2021/05/02 09:22:26;;;;;;;;;;;;;;;21.73;35.47;99200.28;5255322;27;32259;-90
2021/05/02 09:24:59;;;;;;;;;;;;;;;22.32;33.63;99201.34;5254787;27;32822;-90
2021/05/02 09:27:26;;;;;;;;;;;;;;;22.93;32.29;99225.19;5254776;27;33173;-91
2021/05/02 09:29:53;;;;;;;;;;;;;;;22.66;32.98;99226.69;5254736;27;33796;-90
2021/05/02 09:32:21;;;;;;;;;;;;;;;22.77;32.70;99221.25;5237052;27;33140;-91
2021/05/02 09:34:52;;;;;;;;;;;;;;;22.35;33.56;99235.56;5239183;27;33707;-91
2021/05/02 09:37:22;;;;;;;;;;;;;;;22.33;33.54;99250.75;5241284;27;33051;-90
2021/05/02 09:39:50;;;;;;;;;;;;;;;22.44;33.24;99259.63;5259892;27;33575;-90
2021/05/02 09:42:21;;;;;;;;;;;;;;;22.23;33.36;99262.31;5242302;27;32662;-89
2021/05/02 09:44:49;;;;;;;;;;;;;;;22.07;33.26;99265.47;5238142;27;32630;-91
2021/05/02 09:47:19;;;;;;;;;;;;;;;21.93;33.27;99256.88;5237535;27;33393;-91
2021/05/02 09:50:01;;;;;;;;;;;;;;;22.62;32.30;99252.69;5255181;27;32771;-90
2021/05/02 09:52:48;;;;;;;;;;;;;;;22.48;32.49;99253.91;5254828;27;32001;-90
2021/05/02 09:55:16;;;;;;;;;;;;;;;22.94;31.66;99269.37;5272631;27;33246;-89
2021/05/02 09:57:51;;;;;;;;;;;;;;;21.62;33.95;99272.75;5254783;27;33782;-89
2021/05/02 10:00:28;;;;;;;;;;;;;;;22.89;31.79;99267.09;5254739;27;32927;-89
2021/05/02 10:02:56;;;;;;;;;;;;;;;22.75;32.06;99275.47;5273139;27;32738;-91
2021/05/02 10:05:24;;;;;;;;;;;;;;;23.10;32.29;99276.78;5237078;27;32779;-91
2021/05/02 10:07:51;;;;;;;;;;;;;;;22.14;35.15;99277.22;5255021;27;34263;-90
2021/05/02 10:10:18;;;;;;;;;;;;;;;22.16;35.42;99278.78;5255689;27;34588;-92
2021/05/02 10:12:52;;;;;;;;;;;;;;;22.49;33.70;99297.22;5237182;27;31655;-91
2021/05/02 10:15:20;;;;;;;;;;;;;;;22.47;32.98;99294.69;5274262;27;33265;-90
2021/05/02 10:17:51;;;;;;;;;;;;;;;22.61;32.51;99295.28;5255580;27;32787;-91
2021/05/02 10:20:21;;;;;;;;;;;;;;;22.87;32.08;99300.09;5238454;27;33834;-90
2021/05/02 10:22:49;;;;;;;;;;;;;;;22.56;32.58;99287.72;5256464;27;33396;-90
2021/05/02 10:25:16;;;;;;;;;;;;;;;22.25;33.34;99314.25;5256179;27;34078;-92
2021/05/02 10:27:47;;;;;;;;;;;;;;;22.70;32.42;99309.59;5274242;27;33894;-90
2021/05/02 10:30:34;;;;;;;;;;;;;;;22.95;33.55;99309.06;5237044;27;33641;-91
2021/05/02 10:33:03;;;;;;;;;;;;;;;22.44;34.79;99313.56;5272291;27;33861;-91
2021/05/02 10:35:52;;;;;;;;;;;;;;;22.13;34.67;99324.13;5272697;27;33979;-90
2021/05/02 10:38:20;;;;;;;;;;;;;;;21.38;35.56;99327.78;5254943;27;33418;-90
2021/05/02 10:40:48;;;;;;;;;;;;;;;22.45;33.03;99327.66;5254688;27;32845;-90
2021/05/02 10:43:28;;;;;;;;;;;;;;;22.28;33.29;99340.56;5254700;27;31890;-91
2021/05/02 10:45:56;;;;;;;;;;;;;;;22.30;33.21;99327.97;5254912;27;32888;-91
2021/05/02 10:48:24;;;;;;;;;;;;;;;22.51;34.47;99338.56;5236956;27;32982;-89
2021/05/02 10:50:52;;;;;;;;;;;;;;;22.82;33.67;99346.50;5254286;27;32595;-90
2021/05/02 10:53:23;;;;;;;;;;;;;;;21.56;36.17;99342.19;5254533;27;34766;-91
2021/05/02 10:55:59;;;;;;;;;;;;;;;22.64;35.01;99338.34;5254470;27;34121;-91
2021/05/02 10:58:31;;;;;;;;;;;;;;;21.43;35.58;99354.75;5254792;27;32882;-90
2021/05/02 11:01:02;;;;;;;;;;;;;;;21.23;35.84;99351.91;5272605;27;33930;-90
2021/05/02 11:03:39;;;;;;;;;;;;;;;21.82;34.69;99363.88;5272339;27;33665;-89
2021/05/02 11:06:09;;;;;;;;;;;;;;;22.58;33.39;99360.13;5272489;27;33568;-91
2021/05/02 11:08:46;;;;;;;;;;;;;;;22.71;32.55;99375.81;5254847;27;33042;-92
2021/05/02 11:14:08;;;;;;;;;;;;;;;22.21;32.50;99389.78;5274538;27;31877;-91
2021/05/02 11:16:35;;;;;;;;;;;;;;;22.74;31.58;99382.69;5274993;27;35158;-90
2021/05/02 11:19:06;;;;;;;;;;;;;;;21.22;33.96;99391.78;5272277;27;33381;-90
2021/05/02 11:21:46;;;;;;;;;;;;;;;22.20;32.52;99398.72;5272226;27;34556;-92
2021/05/02 11:24:14;;;;;;;;;;;;;;;22.67;31.45;99393.00;5256016;27;33493;-90
2021/05/02 11:27:00;;;;;;;;;;;;;;;22.46;32.13;99395.69;5259062;27;33285;-92
2021/05/02 11:29:48;;;;;;;;;;;;;;;23.50;30.60;99388.28;5260710;27;33718;-90
2021/05/02 11:32:31;;;;;;;;;;;;;;;23.21;32.52;99412.19;5244051;27;32911;-90
2021/05/02 11:35:00;;;;;;;;;;;;;;;22.81;36.32;99408.53;5255278;26;31923;-91
2021/05/02 11:37:47;;;;;;;;;;;;;;;23.34;34.14;99410.09;5238108;27;32889;-90
2021/05/02 11:40:17;;;;;;;;;;;;;;;24.10;31.75;99411.25;5275280;27;34059;-90
2021/05/02 11:42:57;;;;;;;;;;;;;;;22.91;33.89;99408.59;5273227;27;34718;-91
2021/05/02 11:45:32;;;;;;;;;;;;;;;22.59;34.89;99401.63;5237682;27;32091;-92
2021/05/02 11:48:03;;;;;;;;;;;;;;;22.21;36.65;99418.16;5255376;27;33029;-90
2021/05/02 11:50:37;;;;;;;;;;;;;;;22.31;36.56;99427.00;5255690;27;33217;-90
2021/05/02 11:53:03;;;;;;;;;;;;;;;22.56;37.36;99414.31;5237388;27;32997;-90
2021/05/02 11:55:41;;;;;;;;;;;;;;;22.77;38.35;99419.59;5255006;27;32148;-90
2021/05/02 11:58:08;;;;;;;;;;;;;;;22.90;39.10;99422.00;5237760;27;32732;-90
2021/05/02 12:00:35;;;;;;;;;;;;;;;21.56;42.34;99416.41;5275092;27;33877;-92
2021/05/02 12:03:03;;;;;;;;;;;;;;;21.83;41.51;99415.09;5272903;27;32710;-91
2021/05/02 12:05:30;;;;;;;;;;;;;;;21.35;42.68;99409.22;5255171;27;32953;-91
2021/05/02 12:08:07;;;;;;;;;;;;;;;21.91;40.07;99423.25;5254912;27;33906;-91
2021/05/02 12:10:34;;;;;;;;;;;;;;;22.11;39.06;99415.41;5255164;27;34697;-91
2021/05/02 12:13:02;;;;;;;;;;;;;;;21.67;39.50;99436.72;5274513;27;34746;-90
2021/05/02 12:15:29;;;;;;;;;;;;;;;22.39;38.10;99442.31;5255856;27;32779;-90
2021/05/02 12:17:56;;;;;;;;;;;;;;;21.89;38.90;99438.44;5255278;27;32943;-90
2021/05/02 12:20:24;;;;;;;;;;;;;;;22.38;39.52;99430.84;5255158;27;32654;-90
2021/05/02 12:22:51;;;;;;;;;;;;;;;21.59;39.05;99417.97;5237402;27;32720;-91
2021/05/02 12:25:19;;;;;;;;;;;;;;;22.52;38.00;99417.25;5254918;27;32069;-90
2021/05/02 12:27:59;;;;;;;;;;;;;;;23.63;34.71;99430.56;5254996;27;32799;-91
2021/05/02 12:30:26;;;;;;;;;;;;;;;22.89;32.79;99426.47;5255320;27;34911;-91
2021/05/02 12:32:55;;;;;;;;;;;;;;;22.76;31.86;99439.13;5254955;27;33353;-90
2021/05/02 12:35:22;;;;;;;;;;;;;;;23.05;31.29;99455.19;5254786;27;32227;-90
2021/05/02 12:37:49;;;;;;;;;;;;;;;23.01;29.13;99449.31;5237181;27;32074;-91
2021/05/02 12:40:17;;;;;;;;;;;;;;;22.48;29.93;99436.22;5255006;27;33737;-90
2021/05/02 12:42:44;;;;;;;;;;;;;;;22.37;29.95;99444.25;5254961;27;33051;-89
2021/05/02 12:45:12;;;;;;;;;;;;;;;23.53;28.32;99432.38;5237055;27;32259;-89
2021/05/02 12:47:46;;;;;;;;;;;;;;;23.48;28.48;99437.25;5255551;27;33260;-90
2021/05/02 12:50:15;;;;;;;;;;;;;;;22.67;30.06;99438.97;5255381;27;34040;-90
2021/05/02 12:52:43;;;;;;;;;;;;;;;23.61;28.59;99432.53;5255195;27;32865;-90
2021/05/02 12:55:19;;;;;;;;;;;;;;;23.07;29.47;99436.44;5254852;27;32170;-90
2021/05/02 12:57:53;;;;;;;;;;;;;;;23.48;28.90;99445.25;5255354;27;32628;-90
2021/05/02 13:00:25;;;;;;;;;;;;;;;23.97;28.03;99458.59;5274095;27;34159;-90